Time;durP1;ratioP1;P1;durP2;ratioP2;P2;SDS_P1;SDS_P2;PMS_P1;PMS_P2;Temp;Humidity;BMP_temperature;BMP_pressure;BME280_temperature;BME280_humidity;BME280_pressure;Samples;Min_cycle;Max_cycle;Signal;HPM_P1;HPM_P2
2022/01/13 00:01:26;;;;;;;57.97;13.80;;;;;;;;;;5065823;27;20572;-60
2022/01/13 00:03:53;;;;;;;;;;;;;;;;;;5046025;28;20668;-58
2022/01/13 00:06:19;;;;;;;53.88;13.00;;;;;;;;;;5081862;28;19926;-58
2022/01/13 00:08:46;;;;;;;62.63;13.52;;;;;;;;;;5084359;28;20036;-60
2022/01/13 00:11:12;;;;;;;53.05;13.38;;;;;;;;;;5065266;28;20036;-61
2022/01/13 00:13:50;;;;;;;56.25;12.45;;;;;;;;;;5064115;28;20031;-60
2022/01/13 00:21:58;;;;;;;48.63;12.63;;;;;;;;;;5081322;28;20038;-59
2022/01/13 00:24:23;;;;;;;42.10;11.25;;;;;;;;;;5079420;28;20032;-59
2022/01/13 00:26:53;;;;;;;46.75;12.85;;;;;;;;;;5049207;28;20044;-58
2022/01/13 00:29:24;;;;;;;53.08;12.40;;;;;;;;;;5048843;27;20055;-59
2022/01/13 00:31:52;;;;;;;54.17;12.00;;;;;;;;;;5082793;28;20028;-60
2022/01/13 00:34:17;;;;;;;64.85;12.45;;;;;;;;;;5060684;28;20035;-60
2022/01/13 00:36:45;;;;;;;45.20;12.15;;;;;;;;;;5082864;28;20035;-60
2022/01/13 00:39:15;;;;;;;43.80;12.68;;;;;;;;;;5082676;27;20038;-60
2022/01/13 00:41:41;;;;;;;49.53;11.85;;;;;;;;;;5066107;28;20031;-60
2022/01/13 00:44:09;;;;;;;50.60;10.90;;;;;;;;;;5050436;28;20656;-58
2022/01/13 00:46:42;;;;;;;41.13;10.40;;;;;;;;;;5084151;28;20023;-58
2022/01/13 00:49:08;;;;;;;42.10;11.63;;;;;;;;;;5064604;28;20179;-60
2022/01/13 00:51:38;;;;;;;47.30;10.98;;;;;;;;;;5065157;28;20027;-60
2022/01/13 00:54:09;;;;;;;32.58;10.20;;;;;;;;;;5080297;27;20032;-58
2022/01/13 00:56:37;;;;;;;48.58;9.82;;;;;;;;;;5080664;28;20039;-58
2022/01/13 00:59:07;;;;;;;53.30;10.38;;;;;;;;;;5082458;28;20070;-59
2022/01/13 01:01:33;;;;;;;47.10;10.30;;;;;;;;;;5082363;28;20050;-58
2022/01/13 01:03:58;;;;;;;46.15;10.38;;;;;;;;;;5062983;28;20479;-60
2022/01/13 01:06:24;;;;;;;52.67;11.35;;;;;;;;;;5080436;27;20046;-60
2022/01/13 01:08:49;;;;;;;53.35;11.00;;;;;;;;;;5063890;28;20441;-58
2022/01/13 01:11:17;;;;;;;47.15;10.32;;;;;;;;;;5044303;28;20032;-59
2022/01/13 01:13:48;;;;;;;46.47;10.27;;;;;;;;;;5083308;28;20482;-60
2022/01/13 01:16:17;;;;;;;47.63;11.68;;;;;;;;;;5060149;27;20031;-60
2022/01/13 01:18:50;;;;;;;52.08;10.07;;;;;;;;;;5081195;28;20637;-59
2022/01/13 01:31:48;;;;;;;51.28;12.07;;;;;;;;;;5081871;28;20080;-60
2022/01/13 01:34:44;;;;;;;57.28;11.13;;;;;;;;;;5046830;28;20549;-59
2022/01/13 01:37:18;;;;;;;47.72;12.25;;;;;;;;;;5079943;28;20122;-59
2022/01/13 01:39:44;;;;;;;53.03;12.37;;;;;;;;;;5065165;28;20489;-59
2022/01/13 01:42:12;;;;;;;58.28;11.35;;;;;;;;;;5080839;28;20297;-59
2022/01/13 01:44:43;;;;;;;58.65;12.45;;;;;;;;;;5080194;28;20036;-59
2022/01/13 01:47:13;;;;;;;67.97;13.23;;;;;;;;;;5064533;28;20036;-59
2022/01/13 01:49:48;;;;;;;56.00;12.63;;;;;;;;;;5081419;28;20102;-59
2022/01/13 01:52:15;;;;;;;52.35;12.63;;;;;;;;;;5061255;28;20142;-60
2022/01/13 01:54:43;;;;;;;53.40;13.43;;;;;;;;;;5061980;28;20742;-59
2022/01/13 01:57:11;;;;;;;59.05;13.45;;;;;;;;;;5062821;28;20032;-59
2022/01/13 01:59:40;;;;;;;52.47;13.13;;;;;;;;;;5064522;28;20020;-59
2022/01/13 02:02:08;;;;;;;56.25;13.82;;;;;;;;;;5031358;28;20081;-60
2022/01/13 02:04:34;;;;;;;48.28;13.70;;;;;;;;;;5079942;28;20429;-59
2022/01/13 02:07:04;;;;;;;65.07;15.15;;;;;;;;;;5061627;28;20040;-60
2022/01/13 02:09:30;;;;;;;71.00;12.75;;;;;;;;;;5080625;28;20218;-60
2022/01/13 02:12:03;;;;;;;57.30;12.90;;;;;;;;;;5059526;28;20034;-60
2022/01/13 02:14:34;;;;;;;58.10;12.77;;;;;;;;;;5082273;28;20040;-59
2022/01/13 02:17:20;;;;;;;53.13;11.80;;;;;;;;;;5080201;28;20051;-59
2022/01/13 02:19:50;;;;;;;63.00;14.25;;;;;;;;;;5050171;28;20036;-59
2022/01/13 02:22:16;;;;;;;45.13;11.93;;;;;;;;;;5080047;28;20473;-60
2022/01/13 02:24:41;;;;;;;64.20;12.55;;;;;;;;;;5045753;28;20124;-59
2022/01/13 02:27:07;;;;;;;63.30;13.38;;;;;;;;;;5049678;28;20244;-59
2022/01/13 02:29:33;;;;;;;46.15;14.38;;;;;;;;;;5061186;28;20510;-60
2022/01/13 02:32:01;;;;;;;69.93;14.05;;;;;;;;;;5080398;28;20020;-60
2022/01/13 02:34:32;;;;;;;57.78;14.85;;;;;;;;;;5082213;28;20020;-60
2022/01/13 02:37:00;;;;;;;60.72;12.52;;;;;;;;;;5060227;28;20038;-60
2022/01/13 02:39:30;;;;;;;55.42;13.05;;;;;;;;;;5080994;28;20882;-60
2022/01/13 02:41:59;;;;;;;39.17;11.75;;;;;;;;;;5079362;28;20032;-60
2022/01/13 02:44:27;;;;;;;74.35;13.95;;;;;;;;;;5061663;28;20023;-60
2022/01/13 02:47:09;;;;;;;56.13;13.13;;;;;;;;;;5065369;28;20039;-59
2022/01/13 02:49:35;;;;;;;55.58;13.35;;;;;;;;;;5079641;28;20058;-60
2022/01/13 02:52:02;;;;;;;55.10;12.70;;;;;;;;;;5078591;28;20390;-59
2022/01/13 02:54:30;;;;;;;51.10;11.93;;;;;;;;;;5081057;28;20391;-59
2022/01/13 02:56:56;;;;;;;45.10;12.73;;;;;;;;;;5057540;28;21949;-60
2022/01/13 02:59:24;;;;;;;43.85;13.02;;;;;;;;;;5062306;28;20042;-59
2022/01/13 03:01:52;;;;;;;46.03;12.75;;;;;;;;;;5067640;28;20040;-59
2022/01/13 03:04:22;;;;;;;43.67;12.75;;;;;;;;;;5067487;28;20027;-59
2022/01/13 03:06:47;;;;;;;53.78;12.38;;;;;;;;;;5059448;28;20718;-59
2022/01/13 03:09:13;;;;;;;55.05;11.90;;;;;;;;;;5080407;28;20577;-59
2022/01/13 03:11:39;;;;;;;35.97;10.40;;;;;;;;;;5083806;28;20036;-59
2022/01/13 03:14:10;;;;;;;49.92;11.15;;;;;;;;;;5067058;28;20028;-58
2022/01/13 03:16:39;;;;;;;44.00;11.88;;;;;;;;;;5060640;28;20360;-59
2022/01/13 03:19:09;;;;;;;46.88;11.88;;;;;;;;;;5067558;28;21010;-60
2022/01/13 03:21:37;;;;;;;42.50;11.30;;;;;;;;;;5063474;28;20634;-60
2022/01/13 03:24:08;;;;;;;55.20;11.52;;;;;;;;;;5080415;28;20238;-60
2022/01/13 03:26:34;;;;;;;57.33;11.95;;;;;;;;;;5084081;28;20545;-58
2022/01/13 03:31:31;;;;;;;54.22;13.05;;;;;;;;;;5068519;28;20217;-59
2022/01/13 03:33:59;;;;;;;51.00;11.52;;;;;;;;;;5051969;28;20023;-61
2022/01/13 03:36:27;;;;;;;49.17;12.20;;;;;;;;;;5069072;28;20060;-59
2022/01/13 03:38:55;;;;;;;54.40;12.10;;;;;;;;;;5066712;28;20123;-59
2022/01/13 03:41:25;;;;;;;51.90;11.70;;;;;;;;;;5082748;28;20035;-59
2022/01/13 03:43:55;;;;;;;39.00;11.73;;;;;;;;;;5051754;28;20028;-59
2022/01/13 03:46:24;;;;;;;50.80;11.98;;;;;;;;;;5082206;27;20039;-59
2022/01/13 03:48:56;;;;;;;53.30;11.93;;;;;;;;;;5084784;27;20031;-59
2022/01/13 03:51:46;;;;;;;45.90;11.60;;;;;;;;;;5061571;28;20436;-59
2022/01/13 03:54:35;;;;;;;47.58;13.07;;;;;;;;;;5082439;28;20245;-59
2022/01/13 03:57:21;;;;;;;53.63;12.25;;;;;;;;;;5038193;28;20039;-59
2022/01/13 03:59:53;;;;;;;50.00;13.07;;;;;;;;;;5083645;28;20119;-59
2022/01/13 04:02:18;;;;;;;40.90;11.85;;;;;;;;;;5085156;28;20024;-59
2022/01/13 04:04:45;;;;;;;57.50;12.88;;;;;;;;;;5066850;28;20380;-59
2022/01/13 04:07:23;;;;;;;37.47;11.57;;;;;;;;;;5079714;28;20077;-59
2022/01/13 04:09:56;;;;;;;46.00;12.75;;;;;;;;;;5082249;27;20019;-59
2022/01/13 04:12:26;;;;;;;51.58;12.68;;;;;;;;;;5066149;28;20024;-59
2022/01/13 04:14:56;;;;;;;53.83;12.77;;;;;;;;;;5047752;28;20177;-60
2022/01/13 04:17:22;;;;;;;35.55;12.02;;;;;;;;;;5047308;28;20103;-60
2022/01/13 04:19:48;;;;;;;42.72;12.55;;;;;;;;;;5068315;28;20119;-59
2022/01/13 04:22:14;;;;;;;57.33;13.52;;;;;;;;;;5065035;28;20080;-59
2022/01/13 04:24:50;;;;;;;45.85;12.45;;;;;;;;;;5081805;27;20123;-59
2022/01/13 04:27:21;;;;;;;44.13;12.18;;;;;;;;;;5063068;28;20621;-61
2022/01/13 04:30:00;;;;;;;56.55;12.05;;;;;;;;;;5068728;28;21520;-60
2022/01/13 04:32:26;;;;;;;53.13;12.23;;;;;;;;;;5070975;28;20114;-61
2022/01/13 04:34:53;;;;;;;52.90;11.98;;;;;;;;;;5082570;28;20034;-60
2022/01/13 04:37:26;;;;;;;50.13;11.60;;;;;;;;;;5064004;28;20422;-60
2022/01/13 04:39:54;;;;;;;54.95;12.35;;;;;;;;;;5082277;28;20391;-60
2022/01/13 04:42:19;;;;;;;55.85;13.15;;;;;;;;;;5063262;28;20039;-60
2022/01/13 04:44:47;;;;;;;53.42;11.23;;;;;;;;;;5065041;28;20027;-60
2022/01/13 04:47:18;;;;;;;55.03;12.80;;;;;;;;;;5060351;28;20681;-59
2022/01/13 04:49:46;;;;;;;59.88;11.73;;;;;;;;;;5052973;28;20024;-60
2022/01/13 04:52:11;;;;;;;43.20;13.13;;;;;;;;;;5047902;28;20034;-59
2022/01/13 04:54:39;;;;;;;51.70;11.10;;;;;;;;;;5081033;28;20028;-60
2022/01/13 04:57:15;;;;;;;50.03;11.32;;;;;;;;;;5080037;28;20035;-59
2022/01/13 04:59:41;;;;;;;50.17;11.48;;;;;;;;;;5086209;28;20031;-58
2022/01/13 05:02:11;;;;;;;61.72;12.88;;;;;;;;;;5050888;28;20027;-61
2022/01/13 05:04:39;;;;;;;42.60;11.10;;;;;;;;;;5062389;28;20039;-59
2022/01/13 05:07:05;;;;;;;41.75;11.32;;;;;;;;;;5062250;28;20031;-59
2022/01/13 05:09:30;;;;;;;53.35;10.98;;;;;;;;;;5063566;28;20057;-59
2022/01/13 05:11:56;;;;;;;44.25;12.23;;;;;;;;;;5081680;28;20027;-59
2022/01/13 05:14:22;;;;;;;39.35;10.57;;;;;;;;;;5066378;28;20036;-59
2022/01/13 05:17:22;;;;;;;41.22;11.07;;;;;;;;;;5064278;28;20024;-58
2022/01/13 05:20:10;;;;;;;40.38;10.80;;;;;;;;;;5065769;28;20047;-60
2022/01/13 05:22:35;;;;;;;52.20;11.48;;;;;;;;;;5067040;28;20672;-59
2022/01/13 05:25:06;;;;;;;37.63;10.43;;;;;;;;;;5062924;27;20035;-59
2022/01/13 05:27:34;;;;;;;46.70;11.70;;;;;;;;;;5079873;27;20055;-59
2022/01/13 05:30:02;;;;;;;55.70;12.60;;;;;;;;;;5065567;28;21478;-59
2022/01/13 05:32:32;;;;;;;40.05;11.73;;;;;;;;;;5063584;28;20039;-59
2022/01/13 05:34:58;;;;;;;51.30;13.45;;;;;;;;;;5082303;27;20631;-59
2022/01/13 05:37:25;;;;;;;52.03;12.45;;;;;;;;;;5062387;28;20119;-59
2022/01/13 05:39:53;;;;;;;48.58;11.63;;;;;;;;;;5048375;28;20047;-60
2022/01/13 05:42:21;;;;;;;43.28;12.13;;;;;;;;;;5045660;28;20081;-61
2022/01/13 05:44:51;;;;;;;57.20;11.60;;;;;;;;;;5048233;28;20032;-59
2022/01/13 05:47:21;;;;;;;51.28;12.60;;;;;;;;;;5080571;28;20131;-60
2022/01/13 05:49:47;;;;;;;79.10;12.90;;;;;;;;;;5083492;28;20064;-60
2022/01/13 05:52:15;;;;;;;48.55;13.73;;;;;;;;;;5081863;28;20592;-60
2022/01/13 05:54:43;;;;;;;50.30;13.73;;;;;;;;;;5068010;28;20032;-60
2022/01/13 05:57:10;;;;;;;63.10;13.35;;;;;;;;;;5064585;28;20024;-59
2022/01/13 05:59:36;;;;;;;73.00;15.13;;;;;;;;;;5033739;28;20103;-59
2022/01/13 06:02:01;;;;;;;65.80;14.32;;;;;;;;;;5082935;28;20026;-59
2022/01/13 06:04:29;;;;;;;54.25;12.00;;;;;;;;;;5072568;28;20071;-61
2022/01/13 06:06:57;;;;;;;53.03;13.55;;;;;;;;;;5033950;28;20463;-60
2022/01/13 06:09:28;;;;;;;58.38;13.15;;;;;;;;;;5081103;28;20123;-60
2022/01/13 06:12:01;;;;;;;54.70;13.63;;;;;;;;;;5049989;28;20836;-60
2022/01/13 06:14:27;;;;;;;65.20;14.43;;;;;;;;;;5066563;28;20032;-59
2022/01/13 06:16:54;;;;;;;61.97;13.65;;;;;;;;;;5082001;28;20055;-59
2022/01/13 06:19:20;;;;;;;58.45;13.88;;;;;;;;;;5065341;28;20031;-58
2022/01/13 06:21:47;;;;;;;63.17;13.60;;;;;;;;;;5060386;28;20039;-59
2022/01/13 06:24:13;;;;;;;58.67;13.23;;;;;;;;;;5064849;28;20035;-59
2022/01/13 06:26:38;;;;;;;67.28;14.85;;;;;;;;;;5061656;28;20035;-59
2022/01/13 06:29:04;;;;;;;66.78;15.93;;;;;;;;;;5081229;28;20070;-59
2022/01/13 06:31:32;;;;;;;69.35;15.13;;;;;;;;;;5068625;28;20039;-59
2022/01/13 06:34:00;;;;;;;67.35;15.00;;;;;;;;;;5065755;28;20501;-58
2022/01/13 06:36:26;;;;;;;65.43;14.20;;;;;;;;;;5081178;28;20127;-59
2022/01/13 06:38:54;;;;;;;59.33;14.68;;;;;;;;;;5068499;28;20159;-60
2022/01/13 06:41:19;;;;;;;56.55;13.75;;;;;;;;;;5066726;28;20129;-60
2022/01/13 06:43:45;;;;;;;72.82;14.82;;;;;;;;;;5069150;28;20036;-60
2022/01/13 06:46:11;;;;;;;74.97;15.80;;;;;;;;;;5075738;28;20019;-60
2022/01/13 06:48:39;;;;;;;67.30;15.80;;;;;;;;;;5069302;28;20028;-59
2022/01/13 06:51:07;;;;;;;73.40;14.85;;;;;;;;;;5070402;28;20442;-60
2022/01/13 06:53:35;;;;;;;64.82;14.80;;;;;;;;;;5086369;28;20390;-60
2022/01/13 06:56:02;;;;;;;68.50;15.75;;;;;;;;;;5086243;28;20144;-60
2022/01/13 06:58:28;;;;;;;62.45;14.05;;;;;;;;;;5068148;28;20031;-60
2022/01/13 07:00:54;;;;;;;63.17;15.55;;;;;;;;;;5063981;28;20471;-59
2022/01/13 07:03:20;;;;;;;86.07;15.98;;;;;;;;;;5067405;28;20131;-59
2022/01/13 07:05:50;;;;;;;66.40;16.77;;;;;;;;;;5067542;28;20031;-58
2022/01/13 07:08:18;;;;;;;65.43;16.08;;;;;;;;;;5086978;28;20059;-59
2022/01/13 07:10:45;;;;;;;65.35;15.95;;;;;;;;;;5084222;28;20134;-61
2022/01/13 07:13:16;;;;;;;60.83;17.15;;;;;;;;;;5085157;28;20035;-60
2022/01/13 07:15:47;;;;;;;57.10;14.93;;;;;;;;;;5085695;27;20051;-59
2022/01/13 07:18:12;;;;;;;73.68;16.60;;;;;;;;;;5067219;28;20035;-60
2022/01/13 07:20:40;;;;;;;94.05;17.85;;;;;;;;;;5085938;28;20890;-60
2022/01/13 07:23:08;;;;;;;82.60;18.00;;;;;;;;;;5073955;28;20488;-60
2022/01/13 07:25:36;;;;;;;58.97;15.90;;;;;;;;;;5086548;27;20028;-60
2022/01/13 07:28:02;;;;;;;72.07;17.38;;;;;;;;;;5065254;28;20055;-59
2022/01/13 07:30:28;;;;;;;64.25;16.85;;;;;;;;;;5084624;28;20035;-59
2022/01/13 07:32:53;;;;;;;64.20;15.27;;;;;;;;;;5064220;28;20035;-59
2022/01/13 07:35:19;;;;;;;57.95;14.65;;;;;;;;;;5083415;28;20070;-59
2022/01/13 07:37:47;;;;;;;75.63;16.95;;;;;;;;;;5065164;28;20043;-59
2022/01/13 07:40:17;;;;;;;85.60;17.48;;;;;;;;;;5082809;27;20035;-60
2022/01/13 07:42:46;;;;;;;73.00;17.40;;;;;;;;;;5046835;28;20035;-59
2022/01/13 07:45:15;;;;;;;62.45;16.75;;;;;;;;;;5062919;27;20233;-61
2022/01/13 07:47:40;;;;;;;68.50;16.92;;;;;;;;;;5059822;28;20059;-59
2022/01/13 07:50:09;;;;;;;81.60;18.48;;;;;;;;;;5081833;28;20020;-61
2022/01/13 07:52:35;;;;;;;60.42;15.50;;;;;;;;;;5063926;28;20095;-60
2022/01/13 07:55:06;;;;;;;76.78;16.45;;;;;;;;;;5084004;28;20028;-59
2022/01/13 07:57:34;;;;;;;76.63;17.40;;;;;;;;;;5081788;28;20110;-60
2022/01/13 08:00:05;;;;;;;85.13;17.70;;;;;;;;;;5048870;28;20130;-59
2022/01/13 08:02:31;;;;;;;59.78;16.65;;;;;;;;;;5082298;28;20031;-59
2022/01/13 08:04:56;;;;;;;78.72;17.35;;;;;;;;;;5062444;28;20070;-59
2022/01/13 08:07:24;;;;;;;87.97;18.02;;;;;;;;;;5068535;28;20162;-59
2022/01/13 08:09:49;;;;;;;90.63;17.80;;;;;;;;;;5083175;28;20497;-60
2022/01/13 08:12:15;;;;;;;72.03;18.25;;;;;;;;;;5062983;28;20163;-59
2022/01/13 08:14:40;;;;;;;61.30;15.32;;;;;;;;;;5082214;27;20069;-60
2022/01/13 08:17:08;;;;;;;66.03;15.52;;;;;;;;;;5063775;28;20825;-59
2022/01/13 08:19:46;;;;;;;70.10;17.98;;;;;;;;;;5055071;28;20028;-59
2022/01/13 08:22:16;;;;;;;65.88;17.42;;;;;;;;;;5064735;28;20080;-59
2022/01/13 08:24:44;;;;;;;70.65;18.05;;;;;;;;;;5064573;28;20088;-59
2022/01/13 08:27:10;;;;;;;57.38;15.35;;;;;;;;;;5081103;28;20039;-60
2022/01/13 08:29:40;;;;;;;57.58;15.90;;;;;;;;;;5082412;27;20159;-60
2022/01/13 08:32:06;;;;;;;63.33;16.17;;;;;;;;;;5080761;28;20027;-61
2022/01/13 08:34:37;;;;;;;62.85;16.02;;;;;;;;;;5050039;28;21864;-61
2022/01/13 08:37:07;;;;;;;69.65;16.85;;;;;;;;;;5066087;28;20051;-60
2022/01/13 08:39:39;;;;;;;59.08;16.20;;;;;;;;;;5065970;28;20031;-61
2022/01/13 08:42:07;;;;;;;52.85;14.95;;;;;;;;;;5065828;28;20041;-59
2022/01/13 08:44:32;;;;;;;56.45;14.98;;;;;;;;;;5043493;28;20119;-60
2022/01/13 08:47:05;;;;;;;64.40;15.82;;;;;;;;;;5082453;27;20023;-61
2022/01/13 08:49:36;;;;;;;60.40;16.55;;;;;;;;;;5046435;28;20035;-60
2022/01/13 08:52:02;;;;;;;56.53;15.23;;;;;;;;;;5060101;28;20044;-60
2022/01/13 08:54:32;;;;;;;65.93;16.60;;;;;;;;;;5081420;28;20028;-60
2022/01/13 08:57:03;;;;;;;45.70;14.20;;;;;;;;;;5079337;28;20036;-59
2022/01/13 08:59:28;;;;;;;63.92;15.68;;;;;;;;;;5063813;28;20517;-60
2022/01/13 09:01:58;;;;;;;49.67;14.30;;;;;;;;;;5060913;28;20035;-60
2022/01/13 09:04:24;;;;;;;57.40;16.60;;;;;;;;;;5065117;28;20557;-60
2022/01/13 09:06:49;;;;;;;55.33;15.48;;;;;;;;;;5059445;28;20043;-61
2022/01/13 09:09:21;;;;;;;53.38;15.63;;;;;;;;;;5081199;28;20042;-61
2022/01/13 09:11:46;;;;;;;60.85;16.17;;;;;;;;;;5065974;28;20533;-61
2022/01/13 09:14:16;;;;;;;54.55;14.63;;;;;;;;;;5080518;28;20024;-59
2022/01/13 09:16:43;;;;;;;56.92;16.52;;;;;;;;;;5044204;28;20039;-61
2022/01/13 09:19:09;;;;;;;56.50;16.75;;;;;;;;;;5043145;27;20024;-58
2022/01/13 09:21:38;;;;;;;59.65;16.75;;;;;;;;;;5077896;28;20841;-60
2022/01/13 09:24:08;;;;;;;46.95;14.85;;;;;;;;;;5061403;28;20080;-60
2022/01/13 09:26:34;;;;;;;53.78;14.77;;;;;;;;;;5080099;28;20150;-60
2022/01/13 09:29:04;;;;;;;46.20;16.27;;;;;;;;;;5078216;28;20053;-59
2022/01/13 09:31:33;;;;;;;51.30;14.98;;;;;;;;;;5062611;28;20035;-60
2022/01/13 09:34:02;;;;;;;39.58;14.77;;;;;;;;;;5080185;28;20027;-59
2022/01/13 09:36:30;;;;;;;53.95;14.32;;;;;;;;;;5062777;28;20145;-59
2022/01/13 09:38:56;;;;;;;45.28;15.15;;;;;;;;;;5078576;27;20380;-60
2022/01/13 09:41:26;;;;;;;60.78;16.23;;;;;;;;;;5079195;27;20031;-60
2022/01/13 09:43:54;;;;;;;49.85;15.25;;;;;;;;;;5045051;28;20044;-59
2022/01/13 09:46:19;;;;;;;58.92;15.52;;;;;;;;;;5062261;28;20529;-60
2022/01/13 09:48:49;;;;;;;52.78;15.43;;;;;;;;;;5081465;28;20023;-60
2022/01/13 09:51:15;;;;;;;57.40;15.13;;;;;;;;;;5078342;28;20700;-59
2022/01/13 09:53:42;;;;;;;55.08;16.08;;;;;;;;;;5063941;28;20031;-60
2022/01/13 09:56:13;;;;;;;52.25;16.55;;;;;;;;;;5062480;28;20043;-60
2022/01/13 09:58:46;;;;;;;55.30;15.38;;;;;;;;;;5053797;28;20031;-59
2022/01/13 10:01:14;;;;;;;49.83;14.15;;;;;;;;;;5043484;28;20019;-59
2022/01/13 10:03:40;;;;;;;61.50;16.20;;;;;;;;;;5081704;28;20016;-60
2022/01/13 10:06:09;;;;;;;49.85;15.60;;;;;;;;;;5059598;28;20271;-60
2022/01/13 10:08:40;;;;;;;56.92;15.50;;;;;;;;;;5064291;28;20127;-59
2022/01/13 10:11:23;;;;;;;43.55;15.85;;;;;;;;;;5079345;28;20028;-60
2022/01/13 10:14:06;;;;;;;63.53;15.90;;;;;;;;;;5078243;28;20051;-60
2022/01/13 10:16:34;;;;;;;48.45;13.88;;;;;;;;;;5079387;28;20435;-59
2022/01/13 10:18:59;;;;;;;41.42;14.07;;;;;;;;;;5082039;28;20054;-60
2022/01/13 10:21:30;;;;;;;39.65;15.27;;;;;;;;;;5044849;28;20035;-60
2022/01/13 10:24:00;;;;;;;45.97;15.35;;;;;;;;;;5064438;28;20782;-59
2022/01/13 10:26:28;;;;;;;38.03;14.77;;;;;;;;;;5058921;28;20899;-59
2022/01/13 10:28:56;;;;;;;50.70;16.55;;;;;;;;;;5063531;28;20225;-59
2022/01/13 10:31:21;;;;;;;49.63;14.30;;;;;;;;;;5062595;28;20069;-60
2022/01/13 10:33:49;;;;;;;41.28;15.65;;;;;;;;;;5060157;28;20020;-59
2022/01/13 10:36:16;;;;;;;44.47;16.42;;;;;;;;;;5081696;28;20043;-59
2022/01/13 10:38:55;;;;;;;51.80;16.38;;;;;;;;;;5048512;28;20404;-60
2022/01/13 10:41:35;;;;;;;52.17;17.42;;;;;;;;;;5045003;28;20128;-60
2022/01/13 10:44:20;;;;;;;49.13;16.05;;;;;;;;;;5062670;28;20036;-61
2022/01/13 10:47:02;;;;;;;43.05;15.40;;;;;;;;;;5080796;28;20146;-59
2022/01/13 10:49:35;;;;;;;46.05;15.48;;;;;;;;;;5081011;28;21197;-60
2022/01/13 10:52:24;;;;;;;48.88;16.23;;;;;;;;;;5065028;28;20722;-60
2022/01/13 10:55:00;;;;;;;48.92;15.98;;;;;;;;;;5058797;28;20584;-62
2022/01/13 10:57:27;;;;;;;54.28;15.45;;;;;;;;;;5080115;28;20035;-62
2022/01/13 10:59:55;;;;;;;43.38;14.35;;;;;;;;;;5063911;28;20035;-61
2022/01/13 11:02:26;;;;;;;50.90;17.00;;;;;;;;;;5078923;28;20081;-60
2022/01/13 11:04:54;;;;;;;64.05;16.98;;;;;;;;;;5077759;28;20032;-59
2022/01/13 11:07:20;;;;;;;48.05;15.68;;;;;;;;;;5080062;28;20019;-60
2022/01/13 11:09:56;;;;;;;39.97;15.00;;;;;;;;;;5044161;28;20031;-60
2022/01/13 11:15:59;;;;;;;51.40;17.35;;;;;;;;;;5078686;28;20027;-60
2022/01/13 11:18:30;;;;;;;42.17;15.20;;;;;;;;;;5081145;28;20028;-60
2022/01/13 11:20:59;;;;;;;46.35;17.42;;;;;;;;;;5068439;28;20389;-62
2022/01/13 11:23:27;;;;;;;45.50;16.13;;;;;;;;;;5066772;28;20031;-60
2022/01/13 11:25:57;;;;;;;54.55;17.45;;;;;;;;;;5073125;28;20039;-59
2022/01/13 11:28:25;;;;;;;51.80;16.23;;;;;;;;;;5058285;28;20129;-61
2022/01/13 11:30:55;;;;;;;52.03;16.02;;;;;;;;;;5074315;28;20389;-61
2022/01/13 11:33:22;;;;;;;47.20;17.08;;;;;;;;;;5054513;28;20092;-59
2022/01/13 11:35:55;;;;;;;51.50;16.95;;;;;;;;;;5069487;28;20472;-59
2022/01/13 11:38:21;;;;;;;46.47;14.82;;;;;;;;;;5080124;28;20081;-60
2022/01/13 11:40:47;;;;;;;42.92;14.90;;;;;;;;;;5054809;28;20073;-59
2022/01/13 11:43:28;;;;;;;44.95;16.55;;;;;;;;;;5042222;28;20376;-61
2022/01/13 11:45:54;;;;;;;48.90;16.85;;;;;;;;;;5058051;28;20712;-59
2022/01/13 11:48:21;;;;;;;42.47;16.15;;;;;;;;;;5053469;28;20068;-60
2022/01/13 11:50:52;;;;;;;55.97;17.55;;;;;;;;;;5072501;28;20084;-61
2022/01/13 11:53:24;;;;;;;42.53;15.20;;;;;;;;;;5056513;28;20111;-59
2022/01/13 11:55:54;;;;;;;36.85;14.88;;;;;;;;;;5070635;28;20023;-59
2022/01/13 11:58:25;;;;;;;40.92;15.00;;;;;;;;;;5072440;28;20043;-58
2022/01/13 12:00:53;;;;;;;44.78;15.38;;;;;;;;;;5084235;27;20035;-62
2022/01/13 12:03:31;;;;;;;43.60;16.00;;;;;;;;;;5053716;28;20085;-58
2022/01/13 12:06:00;;;;;;;41.35;16.38;;;;;;;;;;5056793;28;20040;-61
2022/01/13 12:08:44;;;;;;;39.00;15.60;;;;;;;;;;5060517;28;20024;-60
2022/01/13 12:11:10;;;;;;;38.30;15.83;;;;;;;;;;5070394;28;20024;-59
2022/01/13 12:13:46;;;;;;;40.40;15.65;;;;;;;;;;5053589;28;20036;-61
2022/01/13 12:16:12;;;;;;;31.85;14.65;;;;;;;;;;5053881;28;20124;-61
2022/01/13 12:19:00;;;;;;;35.00;14.90;;;;;;;;;;5069843;28;20399;-60
2022/01/13 12:21:28;;;;;;;37.30;15.55;;;;;;;;;;5061994;28;20118;-60
2022/01/13 12:23:59;;;;;;;38.70;14.95;;;;;;;;;;5049229;28;20035;-60
2022/01/13 12:26:33;;;;;;;43.42;16.52;;;;;;;;;;5082527;28;20032;-60
2022/01/13 12:29:17;;;;;;;33.63;13.57;;;;;;;;;;5081157;28;20129;-61
2022/01/13 12:31:55;;;;;;;37.13;15.13;;;;;;;;;;5085102;28;20035;-59
2022/01/13 12:34:29;;;;;;;34.50;14.52;;;;;;;;;;5068556;28;20032;-61
2022/01/13 12:37:17;;;;;;;37.13;13.98;;;;;;;;;;5083816;28;20051;-61
2022/01/13 12:39:46;;;;;;;34.33;12.77;;;;;;;;;;5068831;28;20918;-60
2022/01/13 12:42:16;;;;;;;38.72;14.60;;;;;;;;;;5064964;28;20032;-61
2022/01/13 12:47:30;;;;;;;34.05;13.43;;;;;;;;;;5081532;28;20032;-60
2022/01/13 12:49:58;;;;;;;34.72;13.32;;;;;;;;;;5067037;28;20461;-59
2022/01/13 12:52:28;;;;;;;36.65;14.10;;;;;;;;;;5081192;28;20024;-60
2022/01/13 12:54:57;;;;;;;40.50;14.55;;;;;;;;;;5061439;28;20036;-59
2022/01/13 12:57:25;;;;;;;45.53;13.23;;;;;;;;;;5080487;28;20062;-59
2022/01/13 12:59:56;;;;;;;34.28;12.52;;;;;;;;;;5064802;28;20582;-59
2022/01/13 13:02:22;;;;;;;36.75;13.20;;;;;;;;;;5081239;28;20034;-59
2022/01/13 13:04:50;;;;;;;32.88;13.50;;;;;;;;;;5066594;28;20607;-61
2022/01/13 13:07:18;;;;;;;46.65;13.05;;;;;;;;;;5048507;28;20035;-58
2022/01/13 13:09:48;;;;;;;30.77;12.43;;;;;;;;;;5080742;28;20039;-61
2022/01/13 13:12:25;;;;;;;38.70;13.07;;;;;;;;;;5079237;28;20736;-59
2022/01/13 13:17:40;;;;;;;29.30;11.93;;;;;;;;;;5083044;27;20130;-60
2022/01/13 13:20:09;;;;;;;32.78;12.65;;;;;;;;;;5066942;28;20019;-60
2022/01/13 13:22:50;;;;;;;39.80;12.88;;;;;;;;;;5061554;28;22037;-60
2022/01/13 13:25:38;;;;;;;24.05;10.95;;;;;;;;;;5060545;27;20484;-61
2022/01/13 13:28:16;;;;;;;34.22;11.60;;;;;;;;;;5080136;28;20052;-60
2022/01/13 13:30:45;;;;;;;25.35;10.35;;;;;;;;;;5079893;28;20090;-61
2022/01/13 13:33:13;;;;;;;30.90;12.13;;;;;;;;;;5080056;28;20024;-58
2022/01/13 13:35:45;;;;;;;38.58;10.70;;;;;;;;;;5079666;28;20071;-60
2022/01/13 13:38:15;;;;;;;28.80;11.30;;;;;;;;;;5063714;28;20036;-60
2022/01/13 13:40:46;;;;;;;29.98;11.00;;;;;;;;;;5078173;28;20028;-59
2022/01/13 13:43:16;;;;;;;25.77;9.82;;;;;;;;;;5062538;28;20294;-59
2022/01/13 13:45:44;;;;;;;31.27;10.25;;;;;;;;;;5078081;28;20073;-60
2022/01/13 13:48:12;;;;;;;28.58;9.63;;;;;;;;;;5081802;28;20535;-59
2022/01/13 13:50:40;;;;;;;24.35;9.93;;;;;;;;;;5048116;28;20056;-60
2022/01/13 13:53:14;;;;;;;20.70;8.88;;;;;;;;;;5045736;28;20131;-61
2022/01/13 13:56:01;;;;;;;19.20;9.90;;;;;;;;;;5080216;28;20035;-60
2022/01/13 13:58:34;;;;;;;26.40;9.80;;;;;;;;;;5063366;28;20028;-60
2022/01/13 14:01:07;;;;;;;29.88;9.43;;;;;;;;;;5077698;28;20367;-60
2022/01/13 14:03:40;;;;;;;20.45;9.95;;;;;;;;;;5054868;28;20123;-59
2022/01/13 14:06:10;;;;;;;28.60;9.27;;;;;;;;;;5058773;28;20114;-59
2022/01/13 14:08:51;;;;;;;22.00;9.20;;;;;;;;;;5057990;28;20028;-59
2022/01/13 14:11:19;;;;;;;26.88;9.10;;;;;;;;;;5065634;28;20027;-59
2022/01/13 14:13:47;;;;;;;32.90;10.80;;;;;;;;;;5067713;28;20033;-60
2022/01/13 14:16:12;;;;;;;24.33;9.65;;;;;;;;;;5080841;28;20036;-59
2022/01/13 14:18:40;;;;;;;25.50;9.25;;;;;;;;;;5062610;28;20477;-61
2022/01/13 14:21:09;;;;;;;28.17;9.57;;;;;;;;;;5062049;28;20032;-60
2022/01/13 14:23:38;;;;;;;28.10;8.75;;;;;;;;;;5062861;28;20043;-59
2022/01/13 14:26:08;;;;;;;33.45;8.90;;;;;;;;;;5076484;28;20107;-61
2022/01/13 14:28:37;;;;;;;31.13;9.38;;;;;;;;;;5062526;28;21048;-59
2022/01/13 14:31:07;;;;;;;37.72;9.30;;;;;;;;;;5077889;28;21103;-59
2022/01/13 14:33:35;;;;;;;24.45;8.50;;;;;;;;;;5079251;28;20126;-60
2022/01/13 14:36:01;;;;;;;29.58;10.25;;;;;;;;;;5081483;28;21956;-60
2022/01/13 14:38:33;;;;;;;26.70;9.55;;;;;;;;;;5078345;28;20024;-60
2022/01/13 14:40:59;;;;;;;33.13;9.55;;;;;;;;;;5080714;28;20059;-59
2022/01/13 14:43:27;;;;;;;29.33;9.80;;;;;;;;;;5046331;28;20162;-59
2022/01/13 14:46:11;;;;;;;29.60;9.40;;;;;;;;;;5064149;28;20039;-61
2022/01/13 14:48:41;;;;;;;24.40;9.65;;;;;;;;;;5080752;28;20024;-59
2022/01/13 14:51:09;;;;;;;31.70;9.48;;;;;;;;;;5063516;28;20360;-60
2022/01/13 14:53:35;;;;;;;26.60;9.25;;;;;;;;;;5079279;28;20076;-60
2022/01/13 14:56:04;;;;;;;39.78;10.77;;;;;;;;;;5063153;28;20046;-59
2022/01/13 14:58:32;;;;;;;26.08;9.60;;;;;;;;;;5067557;28;20378;-60
2022/01/13 15:01:00;;;;;;;21.67;9.15;;;;;;;;;;5067858;28;20119;-61